sensor_id;sensor_type;location;lat;lon;timestamp;P1;durP1;ratioP1;P2;durP2;ratioP2
78368;SDS011;71113;43.092;-89.268;2023-11-21T00:01:57;173.93;;;75.88;;
78368;SDS011;71113;43.092;-89.268;2023-11-21T00:04:23;178.05;;;77.30;;
78368;SDS011;71113;43.092;-89.268;2023-11-21T00:06:50;175.95;;;79.03;;
78368;SDS011;71113;43.092;-89.268;2023-11-21T00:09:16;168.65;;;75.70;;
78368;SDS011;71113;43.092;-89.268;2023-11-21T00:11:43;161.32;;;72.78;;
78368;SDS011;71113;43.092;-89.268;2023-11-21T00:14:09;157.73;;;71.25;;
78368;SDS011;71113;43.092;-89.268;2023-11-21T00:16:36;159.40;;;71.95;;
78368;SDS011;71113;43.092;-89.268;2023-11-21T00:19:02;158.25;;;71.18;;
78368;SDS011;71113;43.092;-89.268;2023-11-21T00:21:28;157.23;;;70.90;;
78368;SDS011;71113;43.092;-89.268;2023-11-21T00:23:54;151.23;;;69.80;;
78368;SDS011;71113;43.092;-89.268;2023-11-21T00:26:20;145.82;;;67.47;;
78368;SDS011;71113;43.092;-89.268;2023-11-21T00:28:45;157.90;;;66.32;;
78368;SDS011;71113;43.092;-89.268;2023-11-21T00:31:11;144.63;;;64.95;;
78368;SDS011;71113;43.092;-89.268;2023-11-21T00:33:37;139.02;;;63.15;;
78368;SDS011;71113;43.092;-89.268;2023-11-21T00:36:03;134.88;;;60.03;;
78368;SDS011;71113;43.092;-89.268;2023-11-21T00:38:37;135.68;;;58.00;;
78368;SDS011;71113;43.092;-89.268;2023-11-21T00:41:06;134.43;;;60.30;;
78368;SDS011;71113;43.092;-89.268;2023-11-21T00:43:32;129.00;;;61.00;;
78368;SDS011;71113;43.092;-89.268;2023-11-21T00:45:59;123.55;;;56.17;;
78368;SDS011;71113;43.092;-89.268;2023-11-21T00:48:24;122.85;;;56.25;;
78368;SDS011;71113;43.092;-89.268;2023-11-21T00:50:50;124.55;;;55.35;;
78368;SDS011;71113;43.092;-89.268;2023-11-21T00:53:16;124.07;;;56.97;;
78368;SDS011;71113;43.092;-89.268;2023-11-21T00:55:42;122.75;;;55.42;;
78368;SDS011;71113;43.092;-89.268;2023-11-21T00:58:08;107.38;;;48.25;;
78368;SDS011;71113;43.092;-89.268;2023-11-21T01:00:34;100.75;;;43.50;;
78368;SDS011;71113;43.092;-89.268;2023-11-21T01:03:00;100.80;;;45.08;;
78368;SDS011;71113;43.092;-89.268;2023-11-21T01:05:25;96.82;;;42.42;;
78368;SDS011;71113;43.092;-89.268;2023-11-21T01:07:52;97.50;;;43.42;;
78368;SDS011;71113;43.092;-89.268;2023-11-21T01:10:18;94.45;;;41.80;;
78368;SDS011;71113;43.092;-89.268;2023-11-21T01:12:44;90.55;;;42.47;;
78368;SDS011;71113;43.092;-89.268;2023-11-21T01:15:10;91.82;;;42.63;;
78368;SDS011;71113;43.092;-89.268;2023-11-21T01:17:37;185.85;;;84.93;;
78368;SDS011;71113;43.092;-89.268;2023-11-21T01:20:04;210.65;;;92.68;;
78368;SDS011;71113;43.092;-89.268;2023-11-21T01:22:37;215.68;;;96.95;;
78368;SDS011;71113;43.092;-89.268;2023-11-21T01:25:03;381.85;;;138.23;;
78368;SDS011;71113;43.092;-89.268;2023-11-21T01:27:33;237.20;;;101.88;;
78368;SDS011;71113;43.092;-89.268;2023-11-21T01:29:59;197.45;;;87.28;;
78368;SDS011;71113;43.092;-89.268;2023-11-21T01:32:26;157.65;;;70.95;;
78368;SDS011;71113;43.092;-89.268;2023-11-21T01:34:53;156.30;;;68.65;;
78368;SDS011;71113;43.092;-89.268;2023-11-21T01:37:20;153.98;;;64.70;;
78368;SDS011;71113;43.092;-89.268;2023-11-21T01:39:48;156.70;;;69.97;;
78368;SDS011;71113;43.092;-89.268;2023-11-21T01:42:15;150.32;;;64.40;;
78368;SDS011;71113;43.092;-89.268;2023-11-21T01:44:42;154.38;;;67.88;;
78368;SDS011;71113;43.092;-89.268;2023-11-21T01:47:09;155.15;;;66.53;;
78368;SDS011;71113;43.092;-89.268;2023-11-21T01:49:36;153.43;;;67.78;;
78368;SDS011;71113;43.092;-89.268;2023-11-21T01:52:04;141.68;;;63.47;;
78368;SDS011;71113;43.092;-89.268;2023-11-21T01:54:32;141.10;;;64.07;;
78368;SDS011;71113;43.092;-89.268;2023-11-21T01:56:59;137.85;;;61.92;;
78368;SDS011;71113;43.092;-89.268;2023-11-21T01:59:34;139.48;;;62.03;;
78368;SDS011;71113;43.092;-89.268;2023-11-21T02:02:03;138.32;;;60.08;;
78368;SDS011;71113;43.092;-89.268;2023-11-21T02:04:34;136.00;;;58.88;;
78368;SDS011;71113;43.092;-89.268;2023-11-21T02:07:02;126.20;;;58.13;;
78368;SDS011;71113;43.092;-89.268;2023-11-21T02:09:32;123.47;;;54.17;;
78368;SDS011;71113;43.092;-89.268;2023-11-21T02:12:00;120.70;;;51.88;;
78368;SDS011;71113;43.092;-89.268;2023-11-21T02:14:27;114.72;;;50.22;;
78368;SDS011;71113;43.092;-89.268;2023-11-21T02:16:54;113.82;;;48.97;;
78368;SDS011;71113;43.092;-89.268;2023-11-21T02:19:22;117.80;;;51.70;;
78368;SDS011;71113;43.092;-89.268;2023-11-21T02:21:51;114.95;;;49.03;;
78368;SDS011;71113;43.092;-89.268;2023-11-21T02:24:22;114.78;;;48.47;;
78368;SDS011;71113;43.092;-89.268;2023-11-21T02:26:54;113.07;;;50.58;;
78368;SDS011;71113;43.092;-89.268;2023-11-21T02:29:21;111.38;;;51.28;;
78368;SDS011;71113;43.092;-89.268;2023-11-21T02:31:53;112.57;;;49.95;;
78368;SDS011;71113;43.092;-89.268;2023-11-21T02:34:21;108.78;;;49.53;;
78368;SDS011;71113;43.092;-89.268;2023-11-21T02:36:50;107.70;;;48.40;;
78368;SDS011;71113;43.092;-89.268;2023-11-21T02:39:18;102.55;;;44.78;;
78368;SDS011;71113;43.092;-89.268;2023-11-21T02:41:47;102.28;;;45.78;;
78368;SDS011;71113;43.092;-89.268;2023-11-21T02:44:14;97.75;;;45.67;;
78368;SDS011;71113;43.092;-89.268;2023-11-21T02:46:41;98.45;;;45.33;;
78368;SDS011;71113;43.092;-89.268;2023-11-21T02:49:08;97.55;;;42.65;;
78368;SDS011;71113;43.092;-89.268;2023-11-21T02:51:35;95.88;;;41.75;;
78368;SDS011;71113;43.092;-89.268;2023-11-21T02:54:03;93.97;;;41.13;;
78368;SDS011;71113;43.092;-89.268;2023-11-21T02:56:35;95.00;;;40.95;;
78368;SDS011;71113;43.092;-89.268;2023-11-21T02:59:02;83.70;;;36.85;;
78368;SDS011;71113;43.092;-89.268;2023-11-21T03:01:30;74.90;;;33.95;;
78368;SDS011;71113;43.092;-89.268;2023-11-21T03:03:56;71.43;;;32.97;;
78368;SDS011;71113;43.092;-89.268;2023-11-21T03:06:22;73.47;;;30.98;;
78368;SDS011;71113;43.092;-89.268;2023-11-21T03:08:49;73.32;;;33.13;;
78368;SDS011;71113;43.092;-89.268;2023-11-21T03:11:16;66.57;;;30.27;;
78368;SDS011;71113;43.092;-89.268;2023-11-21T03:13:42;68.00;;;31.55;;
78368;SDS011;71113;43.092;-89.268;2023-11-21T03:16:09;68.15;;;31.58;;
78368;SDS011;71113;43.092;-89.268;2023-11-21T03:18:36;67.60;;;29.55;;
78368;SDS011;71113;43.092;-89.268;2023-11-21T03:21:04;68.70;;;30.08;;
78368;SDS011;71113;43.092;-89.268;2023-11-21T03:23:36;66.97;;;30.30;;
78368;SDS011;71113;43.092;-89.268;2023-11-21T03:26:02;59.78;;;25.83;;
78368;SDS011;71113;43.092;-89.268;2023-11-21T03:28:29;64.13;;;28.88;;
78368;SDS011;71113;43.092;-89.268;2023-11-21T03:30:55;66.47;;;28.40;;
78368;SDS011;71113;43.092;-89.268;2023-11-21T03:33:22;63.50;;;26.77;;
78368;SDS011;71113;43.092;-89.268;2023-11-21T03:35:48;57.28;;;25.40;;
78368;SDS011;71113;43.092;-89.268;2023-11-21T03:38:14;57.80;;;24.60;;
78368;SDS011;71113;43.092;-89.268;2023-11-21T03:40:41;57.38;;;25.40;;
78368;SDS011;71113;43.092;-89.268;2023-11-21T03:43:07;54.05;;;25.05;;
78368;SDS011;71113;43.092;-89.268;2023-11-21T03:45:33;60.63;;;25.77;;
78368;SDS011;71113;43.092;-89.268;2023-11-21T03:47:59;50.88;;;23.10;;
78368;SDS011;71113;43.092;-89.268;2023-11-21T03:50:28;51.70;;;23.05;;
78368;SDS011;71113;43.092;-89.268;2023-11-21T03:52:54;50.88;;;23.25;;
78368;SDS011;71113;43.092;-89.268;2023-11-21T03:55:20;52.67;;;23.85;;
78368;SDS011;71113;43.092;-89.268;2023-11-21T03:57:46;45.25;;;20.35;;
78368;SDS011;71113;43.092;-89.268;2023-11-21T04:00:12;41.35;;;18.88;;
78368;SDS011;71113;43.092;-89.268;2023-11-21T04:02:38;40.20;;;19.05;;
78368;SDS011;71113;43.092;-89.268;2023-11-21T04:05:04;35.08;;;16.63;;
78368;SDS011;71113;43.092;-89.268;2023-11-21T04:07:32;39.58;;;17.42;;
78368;SDS011;71113;43.092;-89.268;2023-11-21T04:09:59;37.30;;;16.35;;
78368;SDS011;71113;43.092;-89.268;2023-11-21T04:12:25;35.78;;;17.33;;
78368;SDS011;71113;43.092;-89.268;2023-11-21T04:14:51;38.97;;;17.25;;
78368;SDS011;71113;43.092;-89.268;2023-11-21T04:17:19;33.50;;;16.45;;
78368;SDS011;71113;43.092;-89.268;2023-11-21T04:19:46;35.83;;;15.80;;
78368;SDS011;71113;43.092;-89.268;2023-11-21T04:22:12;33.80;;;15.68;;
78368;SDS011;71113;43.092;-89.268;2023-11-21T04:24:38;35.08;;;15.10;;
78368;SDS011;71113;43.092;-89.268;2023-11-21T04:27:04;31.80;;;15.57;;
78368;SDS011;71113;43.092;-89.268;2023-11-21T04:29:30;32.65;;;14.23;;
78368;SDS011;71113;43.092;-89.268;2023-11-21T04:31:55;32.75;;;13.98;;
78368;SDS011;71113;43.092;-89.268;2023-11-21T04:34:21;32.28;;;14.45;;
78368;SDS011;71113;43.092;-89.268;2023-11-21T04:36:47;30.83;;;14.57;;
78368;SDS011;71113;43.092;-89.268;2023-11-21T04:39:13;33.38;;;14.02;;
78368;SDS011;71113;43.092;-89.268;2023-11-21T04:41:39;27.10;;;12.93;;
78368;SDS011;71113;43.092;-89.268;2023-11-21T04:44:05;27.50;;;12.63;;
78368;SDS011;71113;43.092;-89.268;2023-11-21T04:46:32;27.85;;;12.10;;
78368;SDS011;71113;43.092;-89.268;2023-11-21T04:48:58;27.05;;;12.68;;
78368;SDS011;71113;43.092;-89.268;2023-11-21T04:51:24;27.80;;;12.57;;
78368;SDS011;71113;43.092;-89.268;2023-11-21T04:53:50;25.77;;;11.88;;
78368;SDS011;71113;43.092;-89.268;2023-11-21T04:56:16;24.25;;;11.32;;
78368;SDS011;71113;43.092;-89.268;2023-11-21T04:58:42;21.83;;;9.77;;
78368;SDS011;71113;43.092;-89.268;2023-11-21T05:01:08;21.92;;;9.68;;
78368;SDS011;71113;43.092;-89.268;2023-11-21T05:03:34;21.08;;;9.88;;
78368;SDS011;71113;43.092;-89.268;2023-11-21T05:06:00;22.00;;;9.55;;
78368;SDS011;71113;43.092;-89.268;2023-11-21T05:08:26;19.90;;;9.10;;
78368;SDS011;71113;43.092;-89.268;2023-11-21T05:10:52;21.10;;;9.30;;
78368;SDS011;71113;43.092;-89.268;2023-11-21T05:13:18;18.23;;;9.43;;
78368;SDS011;71113;43.092;-89.268;2023-11-21T05:15:45;20.10;;;8.57;;
78368;SDS011;71113;43.092;-89.268;2023-11-21T05:18:11;20.80;;;9.52;;
78368;SDS011;71113;43.092;-89.268;2023-11-21T05:20:39;16.08;;;8.40;;
78368;SDS011;71113;43.092;-89.268;2023-11-21T05:23:06;16.90;;;8.32;;
78368;SDS011;71113;43.092;-89.268;2023-11-21T05:25:33;17.40;;;8.02;;
78368;SDS011;71113;43.092;-89.268;2023-11-21T05:27:59;18.83;;;8.30;;
78368;SDS011;71113;43.092;-89.268;2023-11-21T05:30:26;17.67;;;8.85;;
78368;SDS011;71113;43.092;-89.268;2023-11-21T05:32:53;16.08;;;7.85;;
78368;SDS011;71113;43.092;-89.268;2023-11-21T05:35:19;15.95;;;7.68;;
78368;SDS011;71113;43.092;-89.268;2023-11-21T05:37:45;15.85;;;7.30;;
78368;SDS011;71113;43.092;-89.268;2023-11-21T05:40:11;14.20;;;7.25;;
78368;SDS011;71113;43.092;-89.268;2023-11-21T05:42:38;14.27;;;6.38;;
78368;SDS011;71113;43.092;-89.268;2023-11-21T05:45:06;13.65;;;6.88;;
78368;SDS011;71113;43.092;-89.268;2023-11-21T05:47:43;14.45;;;6.88;;
78368;SDS011;71113;43.092;-89.268;2023-11-21T05:50:11;16.67;;;7.38;;
78368;SDS011;71113;43.092;-89.268;2023-11-21T05:52:42;13.15;;;6.63;;
78368;SDS011;71113;43.092;-89.268;2023-11-21T05:55:09;14.32;;;6.60;;
78368;SDS011;71113;43.092;-89.268;2023-11-21T05:57:36;12.00;;;6.10;;
78368;SDS011;71113;43.092;-89.268;2023-11-21T06:00:10;13.38;;;6.10;;
78368;SDS011;71113;43.092;-89.268;2023-11-21T06:02:40;11.77;;;5.35;;
78368;SDS011;71113;43.092;-89.268;2023-11-21T06:05:07;11.13;;;5.95;;
78368;SDS011;71113;43.092;-89.268;2023-11-21T06:07:33;12.18;;;5.85;;
78368;SDS011;71113;43.092;-89.268;2023-11-21T06:10:01;12.80;;;5.40;;
78368;SDS011;71113;43.092;-89.268;2023-11-21T06:12:31;9.50;;;4.97;;
78368;SDS011;71113;43.092;-89.268;2023-11-21T06:15:01;10.73;;;5.03;;
78368;SDS011;71113;43.092;-89.268;2023-11-21T06:17:31;10.88;;;5.32;;
78368;SDS011;71113;43.092;-89.268;2023-11-21T06:19:57;10.35;;;4.95;;
78368;SDS011;71113;43.092;-89.268;2023-11-21T06:22:23;9.73;;;4.82;;
78368;SDS011;71113;43.092;-89.268;2023-11-21T06:24:49;10.38;;;4.75;;
78368;SDS011;71113;43.092;-89.268;2023-11-21T06:27:15;10.98;;;4.88;;
78368;SDS011;71113;43.092;-89.268;2023-11-21T06:29:41;9.30;;;4.32;;
78368;SDS011;71113;43.092;-89.268;2023-11-21T06:32:07;9.65;;;4.32;;
78368;SDS011;71113;43.092;-89.268;2023-11-21T06:34:33;9.68;;;5.07;;
78368;SDS011;71113;43.092;-89.268;2023-11-21T06:36:59;9.75;;;4.22;;
78368;SDS011;71113;43.092;-89.268;2023-11-21T06:39:25;9.77;;;4.45;;
78368;SDS011;71113;43.092;-89.268;2023-11-21T06:41:52;8.75;;;4.45;;
78368;SDS011;71113;43.092;-89.268;2023-11-21T06:44:18;9.82;;;4.93;;
78368;SDS011;71113;43.092;-89.268;2023-11-21T06:46:45;9.70;;;4.38;;
78368;SDS011;71113;43.092;-89.268;2023-11-21T06:49:11;9.35;;;4.45;;
78368;SDS011;71113;43.092;-89.268;2023-11-21T06:51:37;6.95;;;3.42;;
78368;SDS011;71113;43.092;-89.268;2023-11-21T06:54:03;7.32;;;3.67;;
78368;SDS011;71113;43.092;-89.268;2023-11-21T06:56:29;7.47;;;3.85;;
78368;SDS011;71113;43.092;-89.268;2023-11-21T06:58:54;6.85;;;3.88;;
78368;SDS011;71113;43.092;-89.268;2023-11-21T07:01:20;6.70;;;3.78;;
78368;SDS011;71113;43.092;-89.268;2023-11-21T07:03:46;7.72;;;3.70;;
78368;SDS011;71113;43.092;-89.268;2023-11-21T07:06:12;6.90;;;3.30;;
78368;SDS011;71113;43.092;-89.268;2023-11-21T07:08:38;5.60;;;3.25;;
78368;SDS011;71113;43.092;-89.268;2023-11-21T07:11:04;6.47;;;3.20;;
78368;SDS011;71113;43.092;-89.268;2023-11-21T07:13:30;6.45;;;3.20;;
78368;SDS011;71113;43.092;-89.268;2023-11-21T07:15:57;6.63;;;3.20;;
78368;SDS011;71113;43.092;-89.268;2023-11-21T07:18:24;6.43;;;3.20;;
78368;SDS011;71113;43.092;-89.268;2023-11-21T07:20:50;6.28;;;3.50;;
78368;SDS011;71113;43.092;-89.268;2023-11-21T07:23:17;5.15;;;2.75;;
78368;SDS011;71113;43.092;-89.268;2023-11-21T07:25:43;6.13;;;2.88;;
78368;SDS011;71113;43.092;-89.268;2023-11-21T07:28:09;5.22;;;3.03;;
78368;SDS011;71113;43.092;-89.268;2023-11-21T07:30:35;5.15;;;3.00;;
78368;SDS011;71113;43.092;-89.268;2023-11-21T07:33:01;4.40;;;2.65;;
78368;SDS011;71113;43.092;-89.268;2023-11-21T07:35:26;6.53;;;2.72;;
78368;SDS011;71113;43.092;-89.268;2023-11-21T07:37:52;5.38;;;2.90;;
78368;SDS011;71113;43.092;-89.268;2023-11-21T07:40:18;5.18;;;2.97;;
78368;SDS011;71113;43.092;-89.268;2023-11-21T07:42:44;5.88;;;3.00;;
78368;SDS011;71113;43.092;-89.268;2023-11-21T07:45:10;5.95;;;2.80;;
78368;SDS011;71113;43.092;-89.268;2023-11-21T07:47:36;5.10;;;2.55;;
78368;SDS011;71113;43.092;-89.268;2023-11-21T07:50:04;4.97;;;2.95;;
78368;SDS011;71113;43.092;-89.268;2023-11-21T07:52:32;5.55;;;3.08;;
78368;SDS011;71113;43.092;-89.268;2023-11-21T07:54:58;6.35;;;3.20;;
78368;SDS011;71113;43.092;-89.268;2023-11-21T07:57:24;5.63;;;2.80;;
78368;SDS011;71113;43.092;-89.268;2023-11-21T07:59:51;4.28;;;2.42;;
78368;SDS011;71113;43.092;-89.268;2023-11-21T08:02:19;5.47;;;2.58;;
78368;SDS011;71113;43.092;-89.268;2023-11-21T08:04:44;4.82;;;2.58;;
78368;SDS011;71113;43.092;-89.268;2023-11-21T08:07:10;4.45;;;2.47;;
78368;SDS011;71113;43.092;-89.268;2023-11-21T08:09:36;5.50;;;3.00;;
78368;SDS011;71113;43.092;-89.268;2023-11-21T08:12:03;4.80;;;2.28;;
78368;SDS011;71113;43.092;-89.268;2023-11-21T08:14:29;3.65;;;2.30;;
78368;SDS011;71113;43.092;-89.268;2023-11-21T08:16:56;4.00;;;2.30;;
78368;SDS011;71113;43.092;-89.268;2023-11-21T08:19:23;4.13;;;2.53;;
78368;SDS011;71113;43.092;-89.268;2023-11-21T08:21:52;3.92;;;2.28;;
78368;SDS011;71113;43.092;-89.268;2023-11-21T08:24:20;4.45;;;1.98;;
78368;SDS011;71113;43.092;-89.268;2023-11-21T08:26:46;3.40;;;2.10;;
78368;SDS011;71113;43.092;-89.268;2023-11-21T08:29:12;3.67;;;2.30;;
78368;SDS011;71113;43.092;-89.268;2023-11-21T08:31:38;3.60;;;2.30;;
78368;SDS011;71113;43.092;-89.268;2023-11-21T08:34:04;3.58;;;2.13;;
78368;SDS011;71113;43.092;-89.268;2023-11-21T08:36:30;3.72;;;2.10;;
78368;SDS011;71113;43.092;-89.268;2023-11-21T08:38:56;3.35;;;1.92;;
78368;SDS011;71113;43.092;-89.268;2023-11-21T08:41:23;3.65;;;2.30;;
78368;SDS011;71113;43.092;-89.268;2023-11-21T08:43:52;4.45;;;2.28;;
78368;SDS011;71113;43.092;-89.268;2023-11-21T08:46:19;3.13;;;1.63;;
78368;SDS011;71113;43.092;-89.268;2023-11-21T08:48:44;4.20;;;2.33;;
78368;SDS011;71113;43.092;-89.268;2023-11-21T08:51:11;3.97;;;2.22;;
78368;SDS011;71113;43.092;-89.268;2023-11-21T08:53:38;3.38;;;2.00;;
78368;SDS011;71113;43.092;-89.268;2023-11-21T08:56:04;3.92;;;2.45;;
78368;SDS011;71113;43.092;-89.268;2023-11-21T08:58:33;3.40;;;2.22;;
78368;SDS011;71113;43.092;-89.268;2023-11-21T09:00:59;3.72;;;2.08;;
78368;SDS011;71113;43.092;-89.268;2023-11-21T09:03:24;3.60;;;2.10;;
78368;SDS011;71113;43.092;-89.268;2023-11-21T09:05:50;3.78;;;2.00;;
78368;SDS011;71113;43.092;-89.268;2023-11-21T09:08:16;3.45;;;1.80;;
78368;SDS011;71113;43.092;-89.268;2023-11-21T09:10:42;2.97;;;1.80;;
78368;SDS011;71113;43.092;-89.268;2023-11-21T09:13:10;3.50;;;1.50;;
78368;SDS011;71113;43.092;-89.268;2023-11-21T09:15:36;2.90;;;2.03;;
78368;SDS011;71113;43.092;-89.268;2023-11-21T09:18:02;4.53;;;1.83;;
78368;SDS011;71113;43.092;-89.268;2023-11-21T09:20:28;2.90;;;1.90;;
78368;SDS011;71113;43.092;-89.268;2023-11-21T09:22:54;3.15;;;1.67;;
78368;SDS011;71113;43.092;-89.268;2023-11-21T09:25:21;2.97;;;1.50;;
78368;SDS011;71113;43.092;-89.268;2023-11-21T09:27:47;2.65;;;1.73;;
78368;SDS011;71113;43.092;-89.268;2023-11-21T09:30:13;3.40;;;1.90;;
78368;SDS011;71113;43.092;-89.268;2023-11-21T09:32:39;3.15;;;1.80;;
78368;SDS011;71113;43.092;-89.268;2023-11-21T09:35:06;3.50;;;1.70;;
78368;SDS011;71113;43.092;-89.268;2023-11-21T09:37:35;2.70;;;1.70;;
78368;SDS011;71113;43.092;-89.268;2023-11-21T09:40:01;3.38;;;2.15;;
78368;SDS011;71113;43.092;-89.268;2023-11-21T09:42:36;3.80;;;2.15;;
78368;SDS011;71113;43.092;-89.268;2023-11-21T09:45:14;3.28;;;2.00;;
78368;SDS011;71113;43.092;-89.268;2023-11-21T09:47:47;2.80;;;1.70;;
78368;SDS011;71113;43.092;-89.268;2023-11-21T09:50:36;3.72;;;1.88;;
78368;SDS011;71113;43.092;-89.268;2023-11-21T09:55:49;2.95;;;1.83;;
78368;SDS011;71113;43.092;-89.268;2023-11-21T09:58:17;2.63;;;1.70;;
78368;SDS011;71113;43.092;-89.268;2023-11-21T10:00:45;2.47;;;1.70;;
78368;SDS011;71113;43.092;-89.268;2023-11-21T10:03:13;3.13;;;1.27;;
78368;SDS011;71113;43.092;-89.268;2023-11-21T10:05:40;2.30;;;1.63;;
78368;SDS011;71113;43.092;-89.268;2023-11-21T10:08:08;4.13;;;2.00;;
78368;SDS011;71113;43.092;-89.268;2023-11-21T10:10:38;2.90;;;1.77;;
78368;SDS011;71113;43.092;-89.268;2023-11-21T10:13:11;2.22;;;1.50;;
78368;SDS011;71113;43.092;-89.268;2023-11-21T10:15:41;2.53;;;1.52;;
78368;SDS011;71113;43.092;-89.268;2023-11-21T10:18:13;2.28;;;1.50;;
78368;SDS011;71113;43.092;-89.268;2023-11-21T10:20:40;3.10;;;1.80;;
78368;SDS011;71113;43.092;-89.268;2023-11-21T10:23:07;2.30;;;1.45;;
78368;SDS011;71113;43.092;-89.268;2023-11-21T10:25:36;2.70;;;1.63;;
78368;SDS011;71113;43.092;-89.268;2023-11-21T10:28:03;3.15;;;1.70;;
78368;SDS011;71113;43.092;-89.268;2023-11-21T10:30:33;2.72;;;1.70;;
78368;SDS011;71113;43.092;-89.268;2023-11-21T10:33:02;2.08;;;1.30;;
78368;SDS011;71113;43.092;-89.268;2023-11-21T10:35:39;2.38;;;1.60;;
78368;SDS011;71113;43.092;-89.268;2023-11-21T10:38:14;2.30;;;1.52;;
78368;SDS011;71113;43.092;-89.268;2023-11-21T10:40:40;2.13;;;1.55;;
78368;SDS011;71113;43.092;-89.268;2023-11-21T10:43:07;2.60;;;1.60;;
78368;SDS011;71113;43.092;-89.268;2023-11-21T10:48:10;2.22;;;1.45;;
78368;SDS011;71113;43.092;-89.268;2023-11-21T10:50:43;2.10;;;1.45;;
78368;SDS011;71113;43.092;-89.268;2023-11-21T10:53:11;2.67;;;1.50;;
78368;SDS011;71113;43.092;-89.268;2023-11-21T10:55:38;2.40;;;1.50;;
78368;SDS011;71113;43.092;-89.268;2023-11-21T10:58:04;1.80;;;1.20;;
78368;SDS011;71113;43.092;-89.268;2023-11-21T11:00:32;2.50;;;1.50;;
78368;SDS011;71113;43.092;-89.268;2023-11-21T11:02:59;2.78;;;1.50;;
78368;SDS011;71113;43.092;-89.268;2023-11-21T11:05:26;2.03;;;1.30;;
78368;SDS011;71113;43.092;-89.268;2023-11-21T11:08:03;1.85;;;1.27;;
78368;SDS011;71113;43.092;-89.268;2023-11-21T11:12:57;1.73;;;1.20;;
78368;SDS011;71113;43.092;-89.268;2023-11-21T11:15:24;1.58;;;1.10;;
78368;SDS011;71113;43.092;-89.268;2023-11-21T11:17:52;1.83;;;1.20;;
78368;SDS011;71113;43.092;-89.268;2023-11-21T11:20:22;2.13;;;1.20;;
78368;SDS011;71113;43.092;-89.268;2023-11-21T11:22:54;1.30;;;1.10;;
78368;SDS011;71113;43.092;-89.268;2023-11-21T11:26:09;1.63;;;1.20;;
78368;SDS011;71113;43.092;-89.268;2023-11-21T11:28:26;1.27;;;1.10;;
78368;SDS011;71113;43.092;-89.268;2023-11-21T11:36:12;1.38;;;1.08;;
78368;SDS011;71113;43.092;-89.268;2023-11-21T11:38:58;1.35;;;1.20;;
78368;SDS011;71113;43.092;-89.268;2023-11-21T11:41:27;1.63;;;1.10;;
78368;SDS011;71113;43.092;-89.268;2023-11-21T11:43:57;1.00;;;0.90;;
78368;SDS011;71113;43.092;-89.268;2023-11-21T11:46:44;1.33;;;1.05;;
78368;SDS011;71113;43.092;-89.268;2023-11-21T11:49:32;1.55;;;1.15;;
78368;SDS011;71113;43.092;-89.268;2023-11-21T11:55:01;1.35;;;0.80;;
78368;SDS011;71113;43.092;-89.268;2023-11-21T11:57:33;1.15;;;1.02;;
78368;SDS011;71113;43.092;-89.268;2023-11-21T12:02:47;1.42;;;0.93;;
78368;SDS011;71113;43.092;-89.268;2023-11-21T12:05:15;1.45;;;1.02;;
78368;SDS011;71113;43.092;-89.268;2023-11-21T12:07:50;1.15;;;0.90;;
78368;SDS011;71113;43.092;-89.268;2023-11-21T12:10:23;1.45;;;1.02;;
78368;SDS011;71113;43.092;-89.268;2023-11-21T12:12:51;1.52;;;1.00;;
78368;SDS011;71113;43.092;-89.268;2023-11-21T12:15:18;1.23;;;0.60;;
78368;SDS011;71113;43.092;-89.268;2023-11-21T12:17:45;1.40;;;1.10;;
78368;SDS011;71113;43.092;-89.268;2023-11-21T12:20:12;1.58;;;1.10;;
78368;SDS011;71113;43.092;-89.268;2023-11-21T12:22:45;4.10;;;1.13;;
78368;SDS011;71113;43.092;-89.268;2023-11-21T12:25:13;1.05;;;0.95;;
78368;SDS011;71113;43.092;-89.268;2023-11-21T12:27:44;1.70;;;1.10;;
78368;SDS011;71113;43.092;-89.268;2023-11-21T12:30:23;1.98;;;1.15;;
78368;SDS011;71113;43.092;-89.268;2023-11-21T12:32:53;1.73;;;1.00;;
78368;SDS011;71113;43.092;-89.268;2023-11-21T12:35:24;1.55;;;1.10;;
78368;SDS011;71113;43.092;-89.268;2023-11-21T12:37:52;1.83;;;1.15;;
78368;SDS011;71113;43.092;-89.268;2023-11-21T12:40:24;1.90;;;1.10;;
78368;SDS011;71113;43.092;-89.268;2023-11-21T12:42:51;2.10;;;1.30;;
78368;SDS011;71113;43.092;-89.268;2023-11-21T12:45:20;3.33;;;1.30;;
78368;SDS011;71113;43.092;-89.268;2023-11-21T12:47:51;1.17;;;0.93;;
78368;SDS011;71113;43.092;-89.268;2023-11-21T12:50:21;1.80;;;1.20;;
78368;SDS011;71113;43.092;-89.268;2023-11-21T12:52:54;1.13;;;0.95;;
78368;SDS011;71113;43.092;-89.268;2023-11-21T12:55:24;1.30;;;1.20;;
78368;SDS011;71113;43.092;-89.268;2023-11-21T12:57:54;1.90;;;1.20;;
78368;SDS011;71113;43.092;-89.268;2023-11-21T13:00:33;2.08;;;1.23;;
78368;SDS011;71113;43.092;-89.268;2023-11-21T13:03:11;1.40;;;1.00;;
78368;SDS011;71113;43.092;-89.268;2023-11-21T13:05:41;2.78;;;1.27;;
78368;SDS011;71113;43.092;-89.268;2023-11-21T13:08:15;1.52;;;1.20;;
78368;SDS011;71113;43.092;-89.268;2023-11-21T13:10:45;2.25;;;1.15;;
78368;SDS011;71113;43.092;-89.268;2023-11-21T13:13:14;1.05;;;0.68;;
78368;SDS011;71113;43.092;-89.268;2023-11-21T13:15:56;1.25;;;1.00;;
78368;SDS011;71113;43.092;-89.268;2023-11-21T13:18:26;1.42;;;1.23;;
78368;SDS011;71113;43.092;-89.268;2023-11-21T13:20:54;1.48;;;1.10;;
78368;SDS011;71113;43.092;-89.268;2023-11-21T13:23:22;1.02;;;0.90;;
78368;SDS011;71113;43.092;-89.268;2023-11-21T13:25:48;2.10;;;1.20;;
78368;SDS011;71113;43.092;-89.268;2023-11-21T13:28:15;1.42;;;1.15;;
78368;SDS011;71113;43.092;-89.268;2023-11-21T13:30:43;1.98;;;1.42;;
78368;SDS011;71113;43.092;-89.268;2023-11-21T13:33:09;0.68;;;0.68;;
78368;SDS011;71113;43.092;-89.268;2023-11-21T13:35:38;1.15;;;0.98;;
78368;SDS011;71113;43.092;-89.268;2023-11-21T13:38:12;1.08;;;0.90;;
78368;SDS011;71113;43.092;-89.268;2023-11-21T13:40:40;1.10;;;1.00;;
78368;SDS011;71113;43.092;-89.268;2023-11-21T13:43:14;0.88;;;0.80;;
78368;SDS011;71113;43.092;-89.268;2023-11-21T13:45:42;1.10;;;1.00;;
78368;SDS011;71113;43.092;-89.268;2023-11-21T13:48:09;1.00;;;0.90;;
78368;SDS011;71113;43.092;-89.268;2023-11-21T13:50:41;1.48;;;0.95;;
78368;SDS011;71113;43.092;-89.268;2023-11-21T13:53:26;1.63;;;0.63;;
78368;SDS011;71113;43.092;-89.268;2023-11-21T13:55:52;1.33;;;0.95;;
78368;SDS011;71113;43.092;-89.268;2023-11-21T13:58:26;1.55;;;1.08;;
78368;SDS011;71113;43.092;-89.268;2023-11-21T14:01:18;1.45;;;1.10;;
78368;SDS011;71113;43.092;-89.268;2023-11-21T14:04:00;1.23;;;0.90;;
78368;SDS011;71113;43.092;-89.268;2023-11-21T14:06:51;1.25;;;1.10;;
78368;SDS011;71113;43.092;-89.268;2023-11-21T14:09:20;1.10;;;0.90;;
78368;SDS011;71113;43.092;-89.268;2023-11-21T14:11:56;1.17;;;0.93;;
78368;SDS011;71113;43.092;-89.268;2023-11-21T14:14:26;0.57;;;0.57;;
78368;SDS011;71113;43.092;-89.268;2023-11-21T14:16:55;1.98;;;1.13;;
78368;SDS011;71113;43.092;-89.268;2023-11-21T14:19:22;1.52;;;1.00;;
78368;SDS011;71113;43.092;-89.268;2023-11-21T14:21:52;1.55;;;1.00;;
78368;SDS011;71113;43.092;-89.268;2023-11-21T14:24:18;33.42;;;19.75;;
78368;SDS011;71113;43.092;-89.268;2023-11-21T14:26:46;100.93;;;64.35;;
78368;SDS011;71113;43.092;-89.268;2023-11-21T14:29:12;19.10;;;12.07;;
78368;SDS011;71113;43.092;-89.268;2023-11-21T14:31:45;38.75;;;23.92;;
78368;SDS011;71113;43.092;-89.268;2023-11-21T14:34:11;46.38;;;26.80;;